Time;durP1;ratioP1;P1;durP2;ratioP2;P2;SDS_P1;SDS_P2;PMS_P1;PMS_P2;Temp;Humidity;BMP_temperature;BMP_pressure;BME280_temperature;BME280_humidity;BME280_pressure;Samples;Min_cycle;Max_cycle;Signal;HPM_P1;HPM_P2
2023/04/06 00:00:57;;;;;;;;;;;;;;;18.04;63.33;101453.27;2279333;77;22536;-76
2023/04/06 00:03:59;;;;;;;;;;;;;;;18.02;63.40;101451.23;2278823;78;50088;-76
2023/04/06 00:07:01;;;;;;;;;;;;;;;18.00;63.80;101452.72;2283423;77;51048;-76
2023/04/06 00:10:03;;;;;;;;;;;;;;;18.02;63.46;101445.38;2279031;78;51477;-76
2023/04/06 00:13:05;;;;;;;;;;;;;;;18.08;63.23;101448.41;2257776;78;51629;-76
2023/04/06 00:16:07;;;;;;;;;;;;;;;18.16;62.98;101440.41;2278764;78;51612;-76
2023/04/06 00:19:09;;;;;;;;;;;;;;;18.21;62.73;101440.30;2246121;78;51189;-76
2023/04/06 00:22:10;;;;;;;;;;;;;;;18.24;62.57;101441.81;2279001;78;50233;-76
2023/04/06 00:25:12;;;;;;;;;;;;;;;18.23;62.59;101430.73;2278770;78;51408;-77
2023/04/06 00:28:13;;;;;;;;;;;;;;;18.20;62.54;101429.73;2278920;78;51627;-75
2023/04/06 00:31:15;;;;;;;;;;;;;;;18.17;62.61;101430.89;2257586;78;52347;-75
2023/04/06 00:34:17;;;;;;;;;;;;;;;18.15;62.66;101430.70;2257897;78;51618;-76
2023/04/06 00:37:19;;;;;;;;;;;;;;;18.12;62.78;101432.38;2257857;78;50722;-77
2023/04/06 00:40:21;;;;;;;;;;;;;;;18.06;62.96;101429.34;2278955;77;50433;-76
2023/04/06 00:43:22;;;;;;;;;;;;;;;18.08;63.25;101432.34;2257580;78;52430;-77
2023/04/06 00:46:24;;;;;;;;;;;;;;;18.03;63.36;101429.67;2230994;78;51666;-76
2023/04/06 00:49:25;;;;;;;;;;;;;;;18.05;62.98;101426.30;2263952;78;50734;-77
2023/04/06 00:52:27;;;;;;;;;;;;;;;18.11;62.73;101425.33;2279071;78;51468;-78
2023/04/06 00:55:29;;;;;;;;;;;;;;;18.14;62.88;101421.01;2258562;78;51696;-77
2023/04/06 00:58:30;;;;;;;;;;;;;;;18.13;62.79;101427.34;2258024;78;50333;-76
2023/04/06 01:01:32;;;;;;;;;;;;;;;18.11;62.81;101423.98;2279027;78;50724;-77
2023/04/06 01:04:34;;;;;;;;;;;;;;;18.08;62.77;101424.31;2257530;78;51491;-77
2023/04/06 01:07:35;;;;;;;;;;;;;;;18.08;62.85;101421.63;2257790;78;52670;-77
2023/04/06 01:10:37;;;;;;;;;;;;;;;18.04;62.99;101421.13;2257910;78;50663;-77
2023/04/06 01:13:39;;;;;;;;;;;;;;;18.01;63.05;101420.95;2257950;78;50391;-77
2023/04/06 01:16:41;;;;;;;;;;;;;;;18.02;63.07;101425.80;2275358;78;51549;-76
2023/04/06 01:19:44;;;;;;;;;;;;;;;18.02;63.14;101419.94;2228072;79;51714;-76
2023/04/06 01:22:46;;;;;;;;;;;;;;;18.01;63.15;101424.13;2213765;79;51642;-77
2023/04/06 01:25:47;;;;;;;;;;;;;;;18.03;62.96;101420.30;2213372;79;51664;-77
2023/04/06 01:28:49;;;;;;;;;;;;;;;18.12;62.72;101421.66;2233676;79;50763;-77
2023/04/06 01:31:51;;;;;;;;;;;;;;;18.18;62.45;101419.16;2213299;79;51165;-77
2023/04/06 01:34:52;;;;;;;;;;;;;;;18.22;62.26;101423.72;2213147;79;50432;-77
2023/04/06 01:37:54;;;;;;;;;;;;;;;18.22;62.16;101417.84;2233815;79;51498;-76
2023/04/06 01:40:56;;;;;;;;;;;;;;;18.24;62.17;101419.87;2233847;79;50030;-77
2023/04/06 01:43:58;;;;;;;;;;;;;;;18.20;62.29;101412.31;2213182;79;50713;-75
2023/04/06 01:47:00;;;;;;;;;;;;;;;18.18;62.36;101414.31;2221773;78;51472;-76
2023/04/06 01:50:05;;;;;;;;;;;;;;;18.14;62.44;101412.97;2234210;78;50047;-76
2023/04/06 01:53:05;;;;;;;;;;;;;;;18.10;62.62;101411.60;2233933;78;22413;-76
2023/04/06 01:56:06;;;;;;;;;;;;;;;18.08;62.81;101410.92;2213081;79;51615;-77
2023/04/06 01:59:08;;;;;;;;;;;;;;;18.09;62.91;101411.28;2233688;79;51563;-77
2023/04/06 02:02:10;;;;;;;;;;;;;;;18.07;62.75;101408.75;2213440;79;50757;-77
2023/04/06 02:05:11;;;;;;;;;;;;;;;18.08;62.71;101402.89;2213214;79;51931;-78
2023/04/06 02:08:13;;;;;;;;;;;;;;;18.08;62.67;101413.09;2213230;79;51754;-77
2023/04/06 02:11:15;;;;;;;;;;;;;;;18.05;62.77;101407.55;2233672;79;50680;-76
2023/04/06 02:14:16;;;;;;;;;;;;;;;18.06;62.79;101413.27;2233509;79;51558;-77
2023/04/06 02:17:18;;;;;;;;;;;;;;;18.04;62.83;101413.92;2226348;78;50656;-77
2023/04/06 02:20:20;;;;;;;;;;;;;;;18.02;62.96;101411.91;2243262;78;52353;-77
2023/04/06 02:23:22;;;;;;;;;;;;;;;18.05;62.97;101417.44;2258025;78;51523;-76
2023/04/06 02:26:23;;;;;;;;;;;;;;;18.05;62.74;101410.74;2257598;78;50655;-76
2023/04/06 02:29:25;;;;;;;;;;;;;;;18.05;62.70;101415.59;2258066;78;51457;-75
2023/04/06 02:32:26;;;;;;;;;;;;;;;18.02;63.01;101413.75;2233523;78;51742;-75
2023/04/06 02:35:29;;;;;;;;;;;;;;;18.02;62.88;101416.42;2233335;78;51252;-77
2023/04/06 02:38:30;;;;;;;;;;;;;;;18.05;62.75;101423.63;2279124;77;50709;-76
2023/04/06 02:41:32;;;;;;;;;;;;;;;18.12;62.57;101409.61;2278986;78;52317;-76
2023/04/06 02:44:34;;;;;;;;;;;;;;;18.19;62.29;101417.34;2233234;78;51061;-76
2023/04/06 02:47:35;;;;;;;;;;;;;;;18.22;62.09;101415.67;2253881;78;51480;-76
2023/04/06 02:50:37;;;;;;;;;;;;;;;18.23;62.04;101417.34;2246138;78;50716;-76
2023/04/06 02:53:39;;;;;;;;;;;;;;;18.21;62.03;101418.86;2279085;78;51459;-77
2023/04/06 02:56:40;;;;;;;;;;;;;;;18.20;62.08;101419.02;2233040;78;50961;-77
2023/04/06 02:59:42;;;;;;;;;;;;;;;18.16;62.15;101413.63;2257703;78;50221;-76
2023/04/06 03:02:44;;;;;;;;;;;;;;;18.12;62.23;101421.66;2279035;78;52637;-76
2023/04/06 03:05:45;;;;;;;;;;;;;;;18.07;62.40;101423.48;2278820;78;51531;-76
2023/04/06 03:08:47;;;;;;;;;;;;;;;18.04;62.63;101421.96;2263728;77;50739;-76
2023/04/06 03:11:49;;;;;;;;;;;;;;;18.06;62.60;101428.51;2258119;78;50644;-76
2023/04/06 03:14:50;;;;;;;;;;;;;;;18.09;62.38;101420.66;2278844;78;50673;-77
2023/04/06 03:17:52;;;;;;;;;;;;;;;18.11;62.26;101422.64;2258270;78;50651;-76
2023/04/06 03:20:56;;;;;;;;;;;;;;;18.11;62.22;101423.51;2259291;78;52376;-77
2023/04/06 03:23:58;;;;;;;;;;;;;;;18.09;62.24;101419.31;2259058;78;50854;-75
2023/04/06 03:27:00;;;;;;;;;;;;;;;18.06;62.31;101419.13;2279111;78;51174;-76
2023/04/06 03:30:02;;;;;;;;;;;;;;;18.03;62.46;101422.97;2279028;78;52004;-77
2023/04/06 03:33:04;;;;;;;;;;;;;;;18.01;62.65;101422.28;2233494;78;50852;-77
2023/04/06 03:36:06;;;;;;;;;;;;;;;18.01;62.56;101426.30;2278803;78;50733;-77
2023/04/06 03:39:08;;;;;;;;;;;;;;;18.00;62.58;101428.62;2245708;78;51567;-75
2023/04/06 03:42:10;;;;;;;;;;;;;;;17.99;62.43;101426.95;2278962;77;51296;-75
2023/04/06 03:45:13;;;;;;;;;;;;;;;17.99;62.60;101431.48;2233198;78;51226;-77
2023/04/06 03:48:14;;;;;;;;;;;;;;;18.00;62.49;101436.66;2258699;78;50872;-76
2023/04/06 03:51:16;;;;;;;;;;;;;;;18.02;62.32;101437.84;2258070;78;51473;-76
2023/04/06 03:54:17;;;;;;;;;;;;;;;18.08;62.19;101445.73;2257787;78;50606;-76
2023/04/06 03:57:19;;;;;;;;;;;;;;;18.16;61.98;101437.73;2233556;78;52415;-76
2023/04/06 04:00:21;;;;;;;;;;;;;;;18.21;61.78;101446.98;2258132;78;52413;-75
2023/04/06 04:03:23;;;;;;;;;;;;;;;18.22;61.70;101449.16;2257918;78;50048;-75
2023/04/06 04:06:25;;;;;;;;;;;;;;;18.21;61.60;101444.31;2257792;78;51644;-76
2023/04/06 04:09:26;;;;;;;;;;;;;;;18.22;61.57;101453.18;2245769;78;51720;-76
2023/04/06 04:12:28;;;;;;;;;;;;;;;18.17;61.65;101450.98;2257674;78;51579;-76
2023/04/06 04:15:29;;;;;;;;;;;;;;;18.15;61.69;101452.97;2278819;77;50785;-76
2023/04/06 04:18:31;;;;;;;;;;;;;;;18.12;61.80;101459.16;2257982;78;51654;-76
2023/04/06 04:21:33;;;;;;;;;;;;;;;18.06;62.01;101457.46;2233472;78;51116;-75
2023/04/06 04:24:34;;;;;;;;;;;;;;;18.06;62.13;101460.14;2233431;78;51178;-76
2023/04/06 04:27:36;;;;;;;;;;;;;;;18.02;62.10;101458.77;2279031;78;50282;-76
2023/04/06 04:30:38;;;;;;;;;;;;;;;18.08;61.91;101460.47;2257856;78;50087;-76
2023/04/06 04:33:39;;;;;;;;;;;;;;;18.11;61.78;101462.34;2283082;77;52416;-76
2023/04/06 04:36:45;;;;;;;;;;;;;;;18.10;61.74;101461.98;2275597;78;51598;-77
2023/04/06 04:39:45;;;;;;;;;;;;;;;18.09;61.71;101460.83;2269575;78;22427;-76
2023/04/06 04:42:47;;;;;;;;;;;;;;;18.06;61.88;101460.14;2278891;77;52252;-76
2023/04/06 04:45:48;;;;;;;;;;;;;;;18.03;61.89;101456.45;2257617;78;51176;-76
2023/04/06 04:48:53;;;;;;;;;;;;;;;18.04;61.94;101467.99;2259327;78;50269;-78
2023/04/06 04:52:09;;;;;;;;;;;;;;;18.04;62.02;101463.47;2260169;78;51617;-79
2023/04/06 04:55:12;;;;;;;;;;;;;;;18.05;62.06;101460.28;2282008;78;22061;-78
2023/04/06 04:58:18;;;;;;;;;;;;;;;18.03;62.07;101469.84;2259497;78;50952;-76
2023/04/06 05:01:20;;;;;;;;;;;;;;;18.04;62.08;101467.48;2279227;78;50776;-76
2023/04/06 05:04:22;;;;;;;;;;;;;;;18.05;61.80;101466.47;2257801;78;51445;-76
2023/04/06 05:07:24;;;;;;;;;;;;;;;18.11;61.64;101474.88;2279918;78;51659;-76
2023/04/06 05:10:25;;;;;;;;;;;;;;;18.18;61.34;101465.20;2245634;78;52289;-76
2023/04/06 05:13:27;;;;;;;;;;;;;;;18.23;61.30;101468.23;2258549;78;50226;-73
2023/04/06 05:16:29;;;;;;;;;;;;;;;18.23;61.25;101468.23;2278909;78;51436;-74
2023/04/06 05:19:30;;;;;;;;;;;;;;;18.28;61.34;101468.59;2279309;78;51347;-74
2023/04/06 05:22:32;;;;;;;;;;;;;;;18.33;61.27;101467.61;2223668;78;50732;-74
2023/04/06 05:25:34;;;;;;;;;;;;;;;18.35;61.07;101476.34;2221182;79;51608;-75
2023/04/06 05:28:36;;;;;;;;;;;;;;;18.32;60.93;101473.98;2221422;80;51450;-75
2023/04/06 05:31:37;;;;;;;;;;;;;;;18.30;60.87;101474.64;2221491;80;50543;-75
2023/04/06 05:34:39;;;;;;;;;;;;;;;18.29;60.86;101478.33;2186360;80;51113;-74
2023/04/06 05:37:41;;;;;;;;;;;;;;;18.27;59.25;101477.65;2239683;78;51587;-75
2023/04/06 05:40:42;;;;;;;;;;;;;;;18.31;58.98;101485.69;2258571;78;50330;-76
2023/04/06 05:43:44;;;;;;;;;;;;;;;18.42;58.95;101484.55;2278824;78;51474;-76
2023/04/06 05:46:46;;;;;;;;;;;;;;;18.64;58.76;101483.13;2257837;78;52459;-76
2023/04/06 05:49:47;;;;;;;;;;;;;;;18.78;58.64;101489.25;2258602;78;51516;-76
2023/04/06 05:52:49;;;;;;;;;;;;;;;18.82;58.57;101481.20;2279231;78;51568;-75
2023/04/06 05:55:50;;;;;;;;;;;;;;;18.85;58.43;101484.88;2278945;78;51554;-75
2023/04/06 05:58:52;;;;;;;;;;;;;;;18.88;58.45;101483.72;2258027;78;51480;-74
2023/04/06 06:01:54;;;;;;;;;;;;;;;18.96;58.30;101486.44;2258114;78;50685;-75
2023/04/06 06:04:55;;;;;;;;;;;;;;;18.98;58.31;101483.58;2278795;78;50218;-75
2023/04/06 06:07:57;;;;;;;;;;;;;;;18.96;58.33;101488.25;2272579;78;50295;-74
2023/04/06 06:10:59;;;;;;;;;;;;;;;18.91;58.42;101490.95;2267913;78;50272;-76
2023/04/06 06:14:00;;;;;;;;;;;;;;;18.90;58.34;101490.59;2230505;79;51470;-75
2023/04/06 06:17:02;;;;;;;;;;;;;;;18.89;58.20;101485.41;2244345;78;50677;-74
2023/04/06 06:20:05;;;;;;;;;;;;;;;18.88;58.15;101491.28;2233117;78;51509;-76
2023/04/06 06:23:07;;;;;;;;;;;;;;;18.88;58.16;101487.73;2236509;78;51650;-73
2023/04/06 06:26:08;;;;;;;;;;;;;;;18.87;58.08;101494.12;2238564;78;50664;-74
2023/04/06 06:29:10;;;;;;;;;;;;;;;18.89;58.08;101490.78;2239029;78;51442;-75
2023/04/06 06:32:11;;;;;;;;;;;;;;;18.87;58.08;101495.45;2258656;78;50242;-74
2023/04/06 06:35:13;;;;;;;;;;;;;;;18.84;58.05;101491.27;2231717;78;51744;-75
2023/04/06 06:38:15;;;;;;;;;;;;;;;18.87;57.90;101490.92;2222799;79;50409;-75
2023/04/06 06:41:16;;;;;;;;;;;;;;;18.89;57.79;101494.29;2256520;78;50669;-75
2023/04/06 06:44:17;;;;;;;;;;;;;;;;;;2258138;78;50649;-74
2023/04/06 06:47:19;;;;;;;;;;;;;;;18.91;57.81;101500.34;2275158;78;50801;-75
2023/04/06 06:50:20;;;;;;;;;;;;;;;18.93;57.72;101494.31;2237969;78;51155;-75
2023/04/06 06:53:22;;;;;;;;;;;;;;;18.96;57.69;101497.64;2239032;78;50644;-74
2023/04/06 06:56:26;;;;;;;;;;;;;;;18.94;57.63;101501.84;2259101;78;51500;-75
2023/04/06 06:59:27;;;;;;;;;;;;;;;18.94;57.57;101503.19;2243471;78;22444;-73
2023/04/06 07:02:29;;;;;;;;;;;;;;;18.93;57.60;101497.47;2258089;78;51558;-74
2023/04/06 07:05:31;;;;;;;;;;;;;;;18.93;57.51;101503.70;2278557;78;50335;-73
2023/04/06 07:08:32;;;;;;;;;;;;;;;18.93;57.52;101498.33;2245514;78;51425;-72
2023/04/06 07:11:34;;;;;;;;;;;;;;;18.93;57.51;101501.02;2278960;77;50075;-73
2023/04/06 07:14:36;;;;;;;;;;;;;;;18.92;57.52;101500.66;2237169;78;51702;-75
2023/04/06 07:17:38;;;;;;;;;;;;;;;18.92;57.48;101495.30;2257942;78;51486;-72
2023/04/06 07:20:39;;;;;;;;;;;;;;;18.92;57.41;101497.98;2273792;78;50726;-72
2023/04/06 07:23:41;;;;;;;;;;;;;;;18.92;57.36;101502.00;2257795;78;49419;-73
2023/04/06 07:26:43;;;;;;;;;;;;;;;18.90;57.36;101494.62;2233696;78;52323;-73
2023/04/06 07:29:44;;;;;;;;;;;;;;;18.91;57.32;101495.48;2278966;78;50663;-73
2023/04/06 07:32:46;;;;;;;;;;;;;;;18.90;57.27;101497.30;2257843;78;50416;-72
2023/04/06 07:35:48;;;;;;;;;;;;;;;18.90;57.27;101505.85;2278340;78;50662;-72
2023/04/06 07:38:49;;;;;;;;;;;;;;;18.89;57.25;101500.99;2248737;78;50686;-73
2023/04/06 07:41:51;;;;;;;;;;;;;;;18.87;57.25;101492.78;2233529;78;50300;-72
2023/04/06 07:44:53;;;;;;;;;;;;;;;18.85;57.23;101491.59;2235016;78;50707;-72
2023/04/06 07:47:54;;;;;;;;;;;;;;;18.85;57.21;101494.27;2255113;77;50326;-73
2023/04/06 07:51:02;;;;;;;;;;;;;;;18.83;57.20;101498.98;2232343;78;52541;-73
2023/04/06 07:54:04;;;;;;;;;;;;;;;18.81;57.15;101492.94;2278665;77;51599;-72
2023/04/06 07:57:06;;;;;;;;;;;;;;;18.81;57.13;101499.64;2278972;78;51637;-71
2023/04/06 08:00:09;;;;;;;;;;;;;;;18.80;57.06;101497.94;2279064;78;50631;-71
2023/04/06 08:03:10;;;;;;;;;;;;;;;18.80;57.03;101496.60;2234439;78;51556;-72
2023/04/06 08:06:12;;;;;;;;;;;;;;;18.79;56.98;101501.64;2257757;78;51529;-72
2023/04/06 08:09:14;;;;;;;;;;;;;;;18.77;57.02;101496.94;2264402;78;50649;-73
2023/04/06 08:12:15;;;;;;;;;;;;;;;18.77;56.95;101497.44;2285715;78;51477;-74
2023/04/06 08:15:18;;;;;;;;;;;;;;;18.74;56.94;101496.41;2234688;78;51704;-71
2023/04/06 08:18:19;;;;;;;;;;;;;;;18.74;56.91;101503.11;2258054;78;51569;-73
2023/04/06 08:21:21;;;;;;;;;;;;;;;18.71;56.91;101504.27;2278989;78;50746;-71
2023/04/06 08:24:23;;;;;;;;;;;;;;;18.70;56.86;101502.09;2260250;78;50476;-72
2023/04/06 08:27:24;;;;;;;;;;;;;;;18.70;56.83;101498.55;2218590;78;51698;-72
2023/04/06 08:30:26;;;;;;;;;;;;;;;18.68;56.83;101500.58;2223410;78;51218;-72
2023/04/06 08:33:28;;;;;;;;;;;;;;;18.64;56.84;101494.69;2278875;78;51595;-72
2023/04/06 08:36:29;;;;;;;;;;;;;;;18.61;56.86;101488.32;2256841;78;51494;-73
2023/04/06 08:39:33;;;;;;;;;;;;;;;18.60;56.89;101503.21;2267494;78;51560;-72
2023/04/06 08:42:34;;;;;;;;;;;;;;;18.58;56.91;101499.88;2258527;78;22214;-73
2023/04/06 08:45:36;;;;;;;;;;;;;;;18.56;57.00;101497.85;2278680;78;51524;-73
2023/04/06 08:48:39;;;;;;;;;;;;;;;18.54;56.90;101489.97;2278989;77;50721;-72
2023/04/06 08:51:40;;;;;;;;;;;;;;;18.55;56.75;101493.48;2257873;78;50309;-72
2023/04/06 08:54:42;;;;;;;;;;;;;;;18.51;56.58;101498.33;2257412;78;50860;-72
2023/04/06 08:57:44;;;;;;;;;;;;;;;18.46;56.41;101493.45;2257580;78;50690;-72
2023/04/06 09:00:45;;;;;;;;;;;;;;;18.45;56.29;101500.33;2279000;78;50658;-73
2023/04/06 09:03:47;;;;;;;;;;;;;;;18.41;56.30;101491.75;2278733;78;51662;-72
2023/04/06 09:06:49;;;;;;;;;;;;;;;18.36;56.40;101495.42;2251044;77;51569;-72
2023/04/06 09:09:51;;;;;;;;;;;;;;;18.38;56.47;101492.59;2256533;78;51615;-72
2023/04/06 09:12:54;;;;;;;;;;;;;;;18.34;56.60;101493.42;2279020;77;51531;-72
2023/04/06 09:16:01;;;;;;;;;;;;;;;18.34;56.58;101493.90;2277631;78;50720;-72
2023/04/06 09:19:05;;;;;;;;;;;;;;;18.31;56.68;101492.38;2256815;78;51295;-72
2023/04/06 09:22:09;;;;;;;;;;;;;;;18.29;56.71;101489.05;2257832;78;50528;-71
2023/04/06 09:25:11;;;;;;;;;;;;;;;18.30;56.72;101485.86;2278740;78;50519;-74
2023/04/06 09:28:13;;;;;;;;;;;;;;;18.22;56.98;101476.78;2257922;78;51526;-73
2023/04/06 09:31:15;;;;;;;;;;;;;;;18.22;57.15;101478.63;2257877;78;50771;-72
2023/04/06 09:34:23;;;;;;;;;;;;;;;18.29;57.08;101478.33;2278746;78;52311;-72
2023/04/06 09:37:27;;;;;;;;;;;;;;;18.26;57.04;101473.27;2281566;77;50303;-72
2023/04/06 09:40:28;;;;;;;;;;;;;;;18.20;57.02;101471.25;2263768;77;50356;-72
2023/04/06 09:43:30;;;;;;;;;;;;;;;18.22;56.66;101473.27;2233200;78;52635;-73
2023/04/06 09:46:33;;;;;;;;;;;;;;;18.21;56.81;101470.23;2278589;77;51562;-71
2023/04/06 09:49:35;;;;;;;;;;;;;;;18.19;56.73;101469.58;2278905;78;51585;-73
2023/04/06 09:52:44;;;;;;;;;;;;;;;18.17;56.97;101460.35;2257770;78;51519;-73
2023/04/06 09:55:46;;;;;;;;;;;;;;;18.14;57.30;101451.81;2257336;78;52407;-72
2023/04/06 09:58:48;;;;;;;;;;;;;;;18.15;57.42;101469.04;2257989;78;50845;-72
2023/04/06 10:01:49;;;;;;;;;;;;;;;18.14;57.41;101453.15;2279046;78;51495;-73
2023/04/06 10:04:52;;;;;;;;;;;;;;;18.15;57.43;101453.47;2266248;77;50756;-72
2023/04/06 10:07:55;;;;;;;;;;;;;;;18.14;57.32;101458.00;2257467;78;50357;-73
2023/04/06 10:10:56;;;;;;;;;;;;;;;18.14;57.22;101450.47;2278899;78;50717;-72
2023/04/06 10:13:58;;;;;;;;;;;;;;;18.11;57.45;101445.41;2257891;78;51508;-72
2023/04/06 10:17:00;;;;;;;;;;;;;;;18.12;57.01;101449.78;2257681;78;51659;-73
2023/04/06 10:20:06;;;;;;;;;;;;;;;18.14;57.01;101458.50;2233351;78;52485;-73
2023/04/06 10:23:09;;;;;;;;;;;;;;;18.15;56.85;101454.81;2278844;77;50445;-72
2023/04/06 10:26:18;;;;;;;;;;;;;;;18.14;56.95;101453.15;2278648;78;51590;-72
2023/04/06 10:29:20;;;;;;;;;;;;;;;18.12;57.07;101453.80;2278945;77;50365;-73
2023/04/06 10:32:23;;;;;;;;;;;;;;;18.10;57.28;101445.08;2233663;78;52613;-73
2023/04/06 10:35:25;;;;;;;;;;;;;;;18.11;57.37;101450.29;2262806;78;52163;-72
2023/04/06 10:38:34;;;;;;;;;;;;;;;18.11;57.48;101445.41;2233493;79;51614;-72
2023/04/06 10:41:37;;;;;;;;;;;;;;;18.10;57.51;101455.80;2233737;79;50517;-72
2023/04/06 10:44:40;;;;;;;;;;;;;;;18.11;57.52;101451.63;2213199;79;51692;-72
2023/04/06 10:47:41;;;;;;;;;;;;;;;18.05;57.67;101446.39;2233425;78;51527;-72
2023/04/06 10:50:51;;;;;;;;;;;;;;;18.08;57.16;101452.43;2213438;79;50711;-72
2023/04/06 10:53:53;;;;;;;;;;;;;;;18.14;56.80;101445.95;2233469;79;50527;-73
2023/04/06 10:56:56;;;;;;;;;;;;;;;18.20;56.60;101446.63;2233650;79;51562;-73
2023/04/06 10:59:57;;;;;;;;;;;;;;;18.21;56.47;101441.62;2233819;79;50725;-73
2023/04/06 11:03:02;;;;;;;;;;;;;;;18.26;56.35;101431.75;2213481;79;52072;-72
2023/04/06 11:06:04;;;;;;;;;;;;;;;18.25;56.32;101428.74;2237704;78;50517;-73
2023/04/06 11:09:06;;;;;;;;;;;;;;;18.24;56.35;101431.09;2233079;78;52581;-74
2023/04/06 11:12:07;;;;;;;;;;;;;;;18.19;56.40;101440.95;2278942;78;50044;-72
2023/04/06 11:15:10;;;;;;;;;;;;;;;18.16;56.67;101416.30;2278567;78;50264;-72
2023/04/06 11:18:11;;;;;;;;;;;;;;;18.12;56.83;101423.84;2278828;77;50336;-73
2023/04/06 11:21:13;;;;;;;;;;;;;;;18.08;57.25;101433.17;2257521;78;52446;-72
2023/04/06 11:24:22;;;;;;;;;;;;;;;18.10;56.82;101416.96;2278755;77;51374;-72
2023/04/06 11:27:25;;;;;;;;;;;;;;;18.15;56.55;101411.96;2278986;78;50795;-73
2023/04/06 11:30:26;;;;;;;;;;;;;;;18.16;56.52;101416.30;2278921;77;51592;-72
2023/04/06 11:33:28;;;;;;;;;;;;;;;18.20;56.42;101412.31;2269149;78;50219;-72
2023/04/06 11:36:30;;;;;;;;;;;;;;;18.17;56.49;101407.28;2253867;78;50690;-72
2023/04/06 11:39:32;;;;;;;;;;;;;;;18.16;56.53;101407.80;2265654;78;50297;-73
2023/04/06 11:42:35;;;;;;;;;;;;;;;18.15;56.77;101405.27;2267946;78;52321;-74
2023/04/06 11:45:42;;;;;;;;;;;;;;;18.11;56.85;101397.20;2237438;78;51777;-71
2023/04/06 11:48:46;;;;;;;;;;;;;;;18.12;57.12;101404.25;2248424;78;51545;-71
2023/04/06 11:51:48;;;;;;;;;;;;;;;18.11;57.31;101405.23;2271486;78;51423;-72
2023/04/06 11:54:50;;;;;;;;;;;;;;;18.09;57.46;101397.89;2257518;77;50655;-73
2023/04/06 11:57:51;;;;;;;;;;;;;;;18.08;57.10;101393.01;2219945;78;52429;-71
2023/04/06 12:00:53;;;;;;;;;;;;;;;18.13;56.82;101391.19;2278510;77;51415;-72
2023/04/06 12:03:55;;;;;;;;;;;;;;;18.18;56.64;101387.02;2272712;78;51326;-73
2023/04/06 12:06:56;;;;;;;;;;;;;;;18.18;56.59;101389.70;2257566;77;51582;-72
2023/04/06 12:09:59;;;;;;;;;;;;;;;18.16;56.67;101395.73;2244498;78;51258;-72
2023/04/06 12:13:01;;;;;;;;;;;;;;;18.14;56.81;101386.19;2248613;78;50373;-73
2023/04/06 12:16:02;;;;;;;;;;;;;;;18.12;56.94;101384.17;2248556;77;50505;-71
2023/04/06 12:19:04;;;;;;;;;;;;;;;18.11;57.04;101386.02;2257755;78;51428;-72
2023/04/06 12:22:05;;;;;;;;;;;;;;;18.12;57.21;101382.33;2203420;79;52350;-72
2023/04/06 12:25:07;;;;;;;;;;;;;;;18.14;57.30;101388.87;2249256;78;51462;-73
2023/04/06 12:28:09;;;;;;;;;;;;;;;18.16;57.18;101378.81;2277241;78;52310;-71
2023/04/06 12:31:17;;;;;;;;;;;;;;;18.15;56.92;101379.31;2233526;79;51568;-72
2023/04/06 12:34:19;;;;;;;;;;;;;;;18.15;56.78;101381.16;2222360;78;52696;-72
2023/04/06 12:37:20;;;;;;;;;;;;;;;18.14;56.85;101371.45;2270465;77;50682;-74
2023/04/06 12:40:22;;;;;;;;;;;;;;;18.13;56.85;101379.97;2265926;78;49963;-73
2023/04/06 12:43:24;;;;;;;;;;;;;;;18.13;56.93;101375.12;2237886;78;50463;-72
2023/04/06 12:46:26;;;;;;;;;;;;;;;18.09;57.14;101369.77;2248036;78;52500;-73
2023/04/06 12:49:27;;;;;;;;;;;;;;;18.10;57.25;101367.41;2278827;78;51399;-72
2023/04/06 12:52:31;;;;;;;;;;;;;;;18.09;57.28;101369.77;2248362;78;50452;-72
2023/04/06 12:55:34;;;;;;;;;;;;;;;18.09;57.24;101367.09;2251473;78;22490;-72
2023/04/06 12:58:36;;;;;;;;;;;;;;;18.13;57.10;101364.41;2216849;79;51779;-73
2023/04/06 13:01:38;;;;;;;;;;;;;;;18.15;57.03;101354.38;2243042;78;51559;-74
2023/04/06 13:04:39;;;;;;;;;;;;;;;18.14;56.83;101354.05;2251235;78;50381;-72
2023/04/06 13:07:41;;;;;;;;;;;;;;;18.16;56.66;101349.34;2230909;78;50306;-72
2023/04/06 13:10:47;;;;;;;;;;;;;;;18.25;56.41;101345.70;2232814;78;51221;-72
2023/04/06 13:13:49;;;;;;;;;;;;;;;18.33;56.21;101343.03;2248079;77;51430;-72
2023/04/06 13:16:51;;;;;;;;;;;;;;;18.33;56.17;101349.73;2257224;78;50669;-72
2023/04/06 13:19:52;;;;;;;;;;;;;;;18.34;56.15;101343.86;2279268;78;50666;-72
2023/04/06 13:22:54;;;;;;;;;;;;;;;18.32;56.19;101346.72;2219207;76;51245;-72
2023/04/06 13:26:03;;;;;;;;;;;;;;;18.31;56.25;101339.67;2261016;76;50387;-73
2023/04/06 13:29:04;;;;;;;;;;;;;;;18.30;56.35;101338.01;2253073;78;51508;-73
2023/04/06 13:32:06;;;;;;;;;;;;;;;18.27;56.46;101337.84;2257675;78;50479;-72
2023/04/06 13:35:08;;;;;;;;;;;;;;;18.30;56.58;101338.52;2235801;78;50878;-71
2023/04/06 13:38:10;;;;;;;;;;;;;;;18.27;56.63;101337.00;2272907;78;50747;-71
2023/04/06 13:41:13;;;;;;;;;;;;;;;18.32;56.62;101325.30;2262611;77;50750;-73
2023/04/06 13:44:15;;;;;;;;;;;;;;;18.36;56.57;101332.48;2262019;78;50676;-73
2023/04/06 13:47:17;;;;;;;;;;;;;;;18.37;56.53;101330.12;2253476;78;50545;-71
2023/04/06 13:50:19;;;;;;;;;;;;;;;18.28;56.84;101326.10;2278643;78;51752;-73
2023/04/06 13:53:20;;;;;;;;;;;;;;;18.28;56.90;101315.89;2280696;77;50691;-72
2023/04/06 13:56:22;;;;;;;;;;;;;;;18.21;57.10;101319.75;2254309;78;52403;-72
2023/04/06 13:59:23;;;;;;;;;;;;;;;18.16;57.39;101318.06;2233431;78;51794;-73
2023/04/06 14:02:27;;;;;;;;;;;;;;;18.17;57.40;101324.25;2260398;78;51418;-72
2023/04/06 14:05:30;;;;;;;;;;;;;;;18.17;57.42;101315.71;2280190;77;50777;-71
2023/04/06 14:08:31;;;;;;;;;;;;;;;18.16;57.43;101315.86;2269233;78;50757;-73
2023/04/06 14:11:33;;;;;;;;;;;;;;;18.18;57.46;101324.58;2234679;78;51208;-72
2023/04/06 14:14:35;;;;;;;;;;;;;;;18.18;57.49;101314.70;2258729;78;52358;-74
2023/04/06 14:17:36;;;;;;;;;;;;;;;18.17;57.53;101319.73;2258514;78;50104;-75
2023/04/06 14:20:38;;;;;;;;;;;;;;;18.18;57.50;101313.36;2233548;78;52320;-74
2023/04/06 14:23:39;;;;;;;;;;;;;;;18.17;57.57;101311.70;2233440;78;51692;-74
2023/04/06 14:26:44;;;;;;;;;;;;;;;18.17;57.65;101308.19;2279038;78;51509;-73
2023/04/06 14:29:45;;;;;;;;;;;;;;;18.17;57.75;101304.17;2258479;78;51416;-74
2023/04/06 14:32:47;;;;;;;;;;;;;;;18.19;57.80;101300.32;2257469;78;51526;-73
2023/04/06 14:35:48;;;;;;;;;;;;;;;18.19;57.88;101308.86;2278968;78;51562;-73
2023/04/06 14:38:50;;;;;;;;;;;;;;;18.21;57.86;101303.68;2262155;78;50401;-73
2023/04/06 14:41:51;;;;;;;;;;;;;;;18.33;57.49;101306.03;2270409;78;50444;-74
2023/04/06 14:44:53;;;;;;;;;;;;;;;18.44;57.14;101305.19;2278627;78;50367;-75
2023/04/06 14:47:55;;;;;;;;;;;;;;;18.60;56.82;101306.20;2212141;78;51145;-74
2023/04/06 14:50:56;;;;;;;;;;;;;;;18.59;56.83;101303.20;2261495;78;50324;-74
2023/04/06 14:53:58;;;;;;;;;;;;;;;18.62;56.83;101303.69;2244005;78;50295;-74
2023/04/06 14:57:00;;;;;;;;;;;;;;;18.60;56.85;101303.53;2254631;78;50304;-76
2023/04/06 15:00:03;;;;;;;;;;;;;;;18.48;57.47;101297.67;2257612;78;52391;-76
2023/04/06 15:03:04;;;;;;;;;;;;;;;18.42;57.73;101295.64;2257980;78;50354;-74
2023/04/06 15:06:06;;;;;;;;;;;;;;;18.38;57.96;101297.00;2257535;78;50260;-74
2023/04/06 15:09:09;;;;;;;;;;;;;;;18.35;58.06;101294.14;2264827;78;50809;-76
2023/04/06 15:12:10;;;;;;;;;;;;;;;18.32;58.25;101299.84;2260868;78;51503;-76
2023/04/06 15:15:12;;;;;;;;;;;;;;;18.33;58.23;101289.45;2278788;78;51569;-74
2023/04/06 15:18:13;;;;;;;;;;;;;;;18.33;58.40;101298.83;2279033;78;50288;-75
2023/04/06 15:21:15;;;;;;;;;;;;;;;18.33;58.35;101285.43;2279048;77;49820;-74
2023/04/06 15:24:17;;;;;;;;;;;;;;;18.33;58.26;101288.11;2221669;78;49697;-75
2023/04/06 15:27:18;;;;;;;;;;;;;;;18.35;58.47;101291.47;2264676;77;50546;-75
2023/04/06 15:30:21;;;;;;;;;;;;;;;18.40;58.76;101295.83;2259501;75;50014;-75
2023/04/06 15:33:22;;;;;;;;;;;;;;;18.43;58.72;101286.11;2274765;75;50691;-75
2023/04/06 15:36:26;;;;;;;;;;;;;;;18.43;58.93;101296.83;2245821;78;51233;-77